createdAt,value
2018-03-01T00:01:20.430Z,-6.50
2018-03-01T00:03:48.042Z,-6.50
2018-03-01T00:06:15.633Z,-6.50
2018-03-01T00:08:43.241Z,-6.50
2018-03-01T00:11:10.840Z,-6.50
2018-03-01T00:13:38.436Z,-6.40
2018-03-01T00:16:06.019Z,-6.40
2018-03-01T00:18:33.621Z,-6.40
2018-03-01T00:21:01.179Z,-6.40
2018-03-01T00:23:28.808Z,-6.30
2018-03-01T00:26:00.181Z,-6.40
2018-03-01T00:28:27.897Z,-6.40
2018-03-01T00:30:55.456Z,-6.30
2018-03-01T00:33:23.461Z,-6.40
2018-03-01T00:35:51.219Z,-6.40
2018-03-01T00:38:19.119Z,-6.40
2018-03-01T00:40:49.372Z,-6.40
2018-03-01T00:43:16.934Z,-6.40
2018-03-01T00:45:44.506Z,-6.40
2018-03-01T00:48:12.109Z,-6.40
2018-03-01T00:50:39.675Z,-6.40
2018-03-01T00:53:07.282Z,-6.50
2018-03-01T00:55:34.852Z,-6.50
2018-03-01T00:58:02.865Z,-6.40
2018-03-01T01:00:35.513Z,-6.40
2018-03-01T01:03:03.150Z,-6.30
2018-03-01T01:05:30.965Z,-6.30
2018-03-01T01:07:58.587Z,-6.30
2018-03-01T01:10:26.565Z,-6.20
2018-03-01T01:12:54.125Z,-6.20
2018-03-01T01:15:21.734Z,-6.10
2018-03-01T01:17:49.292Z,-6.10
2018-03-01T01:20:16.874Z,-6.00
2018-03-01T01:22:44.465Z,-6.10
2018-03-01T01:25:12.124Z,-6.10
2018-03-01T01:27:40.091Z,-6.00
2018-03-01T01:30:07.679Z,-6.00
2018-03-01T01:32:35.269Z,-6.10
2018-03-01T01:35:02.854Z,-6.10
2018-03-01T01:37:30.827Z,-6.10
2018-03-01T01:39:58.504Z,-6.20
2018-03-01T01:42:26.101Z,-6.20
2018-03-01T01:44:53.664Z,-6.20
2018-03-01T01:47:21.304Z,-6.10
2018-03-01T01:49:48.845Z,-6.20
2018-03-01T01:52:16.427Z,-6.20
2018-03-01T01:54:44.020Z,-6.20
2018-03-01T01:57:11.642Z,-6.20
2018-03-01T01:59:39.261Z,-6.30
2018-03-01T02:02:06.826Z,-6.30
2018-03-01T02:04:34.447Z,-6.30
2018-03-01T02:07:02.132Z,-6.30
2018-03-01T02:09:29.712Z,-6.40
2018-03-01T02:11:57.295Z,-6.40
2018-03-01T02:14:24.855Z,-6.40
2018-03-01T02:16:52.446Z,-6.40
2018-03-01T02:19:20.017Z,-6.40
2018-03-01T02:21:49.059Z,-6.40
2018-03-01T02:24:16.747Z,-6.40
2018-03-01T02:26:44.328Z,-6.30
2018-03-01T02:29:11.898Z,-6.30
2018-03-01T02:31:39.465Z,-6.30
2018-03-01T02:34:07.065Z,-6.20
2018-03-01T02:36:35.088Z,-6.20
2018-03-01T02:39:02.718Z,-6.20
2018-03-01T02:41:30.316Z,-6.20
2018-03-01T02:43:57.905Z,-6.30
2018-03-01T02:46:25.489Z,-6.20
2018-03-01T02:48:53.115Z,-6.10
2018-03-01T02:51:20.694Z,-6.10
2018-03-01T02:53:48.666Z,-6.00
2018-03-01T02:56:16.277Z,-6.00
2018-03-01T02:58:44.030Z,-6.00
2018-03-01T03:01:11.604Z,-6.00
2018-03-01T03:03:39.252Z,-6.00
2018-03-01T03:06:06.871Z,-6.00
2018-03-01T03:08:34.828Z,-6.20
2018-03-01T03:11:02.437Z,-6.20
2018-03-01T03:13:30.016Z,-6.20
2018-03-01T03:15:57.594Z,-6.20
2018-03-01T03:18:25.156Z,-6.20
2018-03-01T03:20:52.791Z,-6.10
2018-03-01T03:23:20.372Z,-6.10
2018-03-01T03:25:48.022Z,-6.10
2018-03-01T03:28:15.610Z,-6.00
2018-03-01T03:30:43.194Z,-6.00
2018-03-01T03:33:10.758Z,-6.00
2018-03-01T03:35:38.348Z,-6.10
2018-03-01T03:38:05.976Z,-6.00
2018-03-01T03:40:33.536Z,-6.00
2018-03-01T03:43:02.081Z,-6.20
2018-03-01T03:45:29.773Z,-6.20
2018-03-01T03:47:57.713Z,-6.20
2018-03-01T03:50:25.317Z,-6.20
2018-03-01T03:52:52.917Z,-6.20
2018-03-01T03:55:20.633Z,-6.10
2018-03-01T03:57:48.580Z,-6.30
2018-03-01T04:00:16.156Z,-6.30
2018-03-01T04:02:43.833Z,-6.30
2018-03-01T04:05:11.464Z,-6.20
2018-03-01T04:07:39.707Z,-6.20
2018-03-01T04:10:07.275Z,-6.20
2018-03-01T04:12:37.517Z,-6.20
2018-03-01T04:15:05.156Z,-6.20
2018-03-01T04:17:32.732Z,-6.20
2018-03-01T04:20:00.359Z,-6.30
2018-03-01T04:22:27.957Z,-6.30
2018-03-01T04:24:55.525Z,-6.40
2018-03-01T04:27:23.546Z,-6.50
2018-03-01T04:29:51.210Z,-6.50
2018-03-01T04:32:18.767Z,-6.60
2018-03-01T04:34:46.354Z,-6.50
2018-03-01T04:37:13.954Z,-6.60
2018-03-01T04:39:42.839Z,-6.60
2018-03-01T04:42:10.868Z,-6.60
2018-03-01T04:44:38.484Z,-6.60
2018-03-01T04:47:06.448Z,-6.70
2018-03-01T04:49:34.048Z,-6.70
2018-03-01T04:52:01.664Z,-6.80
2018-03-01T04:54:29.283Z,-6.80
2018-03-01T04:56:56.865Z,-6.80
2018-03-01T04:59:24.440Z,-6.80
2018-03-01T05:01:52.454Z,-6.80
2018-03-01T05:04:20.146Z,-6.80
2018-03-01T05:06:47.732Z,-6.80
2018-03-01T05:09:15.804Z,-6.80
2018-03-01T05:11:44.705Z,-6.80
2018-03-01T05:14:12.708Z,-6.70
2018-03-01T05:16:40.393Z,-6.70
2018-03-01T05:19:07.967Z,-6.70
2018-03-01T05:21:35.562Z,-6.60
2018-03-01T05:24:03.115Z,-6.60
2018-03-01T05:26:31.093Z,-6.50
2018-03-01T05:29:03.766Z,-6.50
2018-03-01T05:31:31.393Z,-6.50
2018-03-01T05:33:58.983Z,-6.50
2018-03-01T05:36:26.983Z,-6.50
2018-03-01T05:38:54.541Z,-6.50
2018-03-01T05:41:22.118Z,-6.50
2018-03-01T05:43:49.730Z,-6.50
2018-03-01T05:46:18.538Z,-6.50
2018-03-01T05:48:46.554Z,-6.50
2018-03-01T05:51:14.486Z,-6.50
2018-03-01T05:53:42.127Z,-6.40
2018-03-01T05:56:09.741Z,-6.40
2018-03-01T05:58:37.417Z,-6.50
2018-03-01T06:01:17.613Z,-6.50
2018-03-01T06:03:45.332Z,-6.60
2018-03-01T06:06:12.959Z,-6.60
2018-03-01T06:08:40.560Z,-6.60
2018-03-01T06:11:08.600Z,-6.50
2018-03-01T06:13:43.747Z,-6.50
2018-03-01T06:16:12.900Z,-6.40
2018-03-01T06:18:40.582Z,-6.40
2018-03-01T06:21:08.239Z,-6.40
2018-03-01T06:23:36.903Z,-6.30
2018-03-01T06:26:18.871Z,-6.30
2018-03-01T06:28:52.081Z,-6.30
2018-03-01T06:31:19.800Z,-6.20
2018-03-01T06:33:48.352Z,-6.20
2018-03-01T06:36:15.927Z,-6.10
2018-03-01T06:38:51.308Z,-6.00
2018-03-01T06:41:18.922Z,-6.00
2018-03-01T06:43:46.626Z,-6.00
2018-03-01T06:46:15.111Z,-5.80
2018-03-01T06:48:42.698Z,-5.80
2018-03-01T06:51:12.088Z,-5.70
2018-03-01T06:53:50.441Z,-5.70
2018-03-01T06:56:18.055Z,-5.60
2018-03-01T06:58:45.801Z,-5.60
2018-03-01T07:01:14.752Z,-5.60
2018-03-01T07:03:42.553Z,-5.50
2018-03-01T07:06:10.157Z,-5.50
2018-03-01T07:08:38.164Z,-5.40
2018-03-01T07:11:06.812Z,-5.40
2018-03-01T07:13:34.486Z,-5.30
2018-03-01T07:16:02.522Z,-4.90
2018-03-01T07:18:30.082Z,-4.90
2018-03-01T07:20:57.678Z,-4.70
2018-03-01T07:23:25.654Z,-4.60
2018-03-01T07:25:53.657Z,-4.60
2018-03-01T07:28:21.279Z,-4.60
2018-03-01T07:30:51.541Z,-4.40
2018-03-01T07:33:19.223Z,-4.40
2018-03-01T07:35:46.845Z,-4.40
2018-03-01T07:38:14.974Z,-4.30
2018-03-01T07:40:43.485Z,-4.20
2018-03-01T07:43:11.198Z,-4.10
2018-03-01T07:45:38.853Z,-4.10
2018-03-01T07:48:06.943Z,-4.00
2018-03-01T07:50:35.558Z,-4.00
2018-03-01T07:53:03.654Z,-3.90
2018-03-01T07:55:32.720Z,-3.90
2018-03-01T08:07:01.812Z,-3.60
2018-03-01T08:09:30.845Z,-3.50
2018-03-01T08:11:59.702Z,-3.40
2018-03-01T08:14:27.689Z,-3.40
2018-03-01T08:16:56.275Z,-3.50
2018-03-01T08:19:24.064Z,-3.50
2018-03-01T08:21:54.171Z,-3.60
2018-03-01T08:24:22.201Z,-3.70
2018-03-01T08:27:20.872Z,-3.70
2018-03-01T08:32:53.390Z,-3.30
2018-03-01T08:35:21.839Z,-3.10
2018-03-01T08:37:49.600Z,-2.90
2018-03-01T08:40:20.625Z,-2.90
2018-03-01T08:42:48.297Z,-2.90
2018-03-01T08:45:15.910Z,-2.80
2018-03-01T08:47:43.551Z,-2.80
2018-03-01T08:50:11.149Z,-2.80
2018-03-01T08:52:38.903Z,-2.70
2018-03-01T08:55:06.559Z,-2.60
2018-03-01T08:57:34.205Z,-2.60
2018-03-01T09:00:05.197Z,-2.50
2018-03-01T09:02:32.778Z,-2.40
2018-03-01T09:05:01.572Z,-2.40
2018-03-01T09:07:30.002Z,-2.40
2018-03-01T09:13:23.263Z,-2.50
2018-03-01T09:16:00.857Z,-2.50
2018-03-01T09:22:41.647Z,-2.40
2018-03-01T09:28:19.065Z,-2.10
2018-03-01T09:30:48.214Z,-2.10
2018-03-01T09:42:15.431Z,-1.70
2018-03-01T09:44:59.207Z,-1.50
2018-03-01T09:47:37.982Z,-1.50
2018-03-01T09:50:06.378Z,-1.50
2018-03-01T09:52:36.852Z,-1.50
2018-03-01T09:55:04.473Z,-1.40
2018-03-01T09:57:32.096Z,-1.30
2018-03-01T10:00:01.050Z,-1.10
2018-03-01T10:05:32.144Z,-0.90
2018-03-01T10:08:02.010Z,-0.80
2018-03-01T10:10:30.482Z,-0.70
2018-03-01T10:12:59.001Z,-0.60
2018-03-01T10:15:32.291Z,-0.50
2018-03-01T10:18:00.514Z,-0.50
2018-03-01T10:20:28.651Z,-0.50
2018-03-01T10:23:18.274Z,-0.40
2018-03-01T10:25:48.176Z,-0.40
2018-03-01T10:28:22.856Z,-0.30
2018-03-01T10:30:55.681Z,-0.10
2018-03-01T10:33:42.188Z,0.10
2018-03-01T10:36:09.840Z,0.30
2018-03-01T10:38:37.491Z,0.50
2018-03-01T10:41:05.107Z,0.50
2018-03-01T10:43:32.723Z,0.60
2018-03-01T10:46:00.460Z,0.90
2018-03-01T10:48:28.140Z,1.10
2018-03-01T10:50:55.912Z,1.20
2018-03-01T10:53:23.590Z,1.40
2018-03-01T10:55:51.157Z,1.50
2018-03-01T10:58:18.825Z,1.50
2018-03-01T11:00:46.527Z,1.30
2018-03-01T11:03:16.910Z,1.30
2018-03-01T11:08:30.625Z,1.70
2018-03-01T11:11:07.395Z,1.70
2018-03-01T11:13:43.052Z,1.80
2018-03-01T11:16:14.603Z,1.70
2018-03-01T11:18:54.719Z,2.00
2018-03-01T11:27:23.031Z,2.60
2018-03-01T11:29:52.239Z,3.20
2018-03-01T11:32:19.958Z,5.40
2018-03-01T11:34:50.310Z,8.00
2018-03-01T11:37:21.610Z,10.20
2018-03-01T11:39:52.845Z,11.40
2018-03-01T11:42:26.692Z,12.00
2018-03-01T11:47:47.776Z,13.40
2018-03-01T11:56:38.265Z,14.90
2018-03-01T11:59:36.802Z,15.00
2018-03-01T12:10:11.867Z,15.80
2018-03-01T12:12:57.950Z,15.70
2018-03-01T12:15:45.500Z,15.80
2018-03-01T12:21:17.820Z,17.00
2018-03-01T12:23:49.961Z,17.60
2018-03-01T12:26:21.142Z,17.70
2018-03-01T12:28:48.742Z,17.00
2018-03-01T12:31:16.382Z,16.00
2018-03-01T12:33:54.982Z,15.30
2018-03-01T12:36:28.495Z,14.90
2018-03-01T12:39:01.030Z,14.90
2018-03-01T12:44:10.856Z,15.30
2018-03-01T12:46:40.570Z,14.90
2018-03-01T12:49:09.723Z,13.80
2018-03-01T12:51:41.315Z,13.10
2018-03-01T12:54:12.356Z,13.20
2018-03-01T12:56:40.015Z,13.30
2018-03-01T12:59:09.629Z,13.10
2018-03-01T13:01:42.404Z,12.80
2018-03-01T13:04:15.751Z,12.70
2018-03-01T13:06:44.193Z,12.60
2018-03-01T13:12:00.251Z,12.70
2018-03-01T13:14:31.036Z,12.60
2018-03-01T13:16:59.950Z,12.80
2018-03-01T13:19:34.674Z,13.20
2018-03-01T13:22:05.459Z,13.40
2018-03-01T13:24:35.096Z,13.30
2018-03-01T13:27:02.798Z,12.90
2018-03-01T13:29:30.479Z,12.80
2018-03-01T13:32:04.966Z,12.70
2018-03-01T13:34:36.916Z,12.50
2018-03-01T13:37:08.211Z,12.80
2018-03-01T13:39:38.022Z,13.10
2018-03-01T13:42:10.378Z,12.90
2018-03-01T13:44:38.984Z,12.50
2018-03-01T13:47:07.490Z,12.60
2018-03-01T13:49:35.190Z,12.60
2018-03-01T13:52:03.238Z,12.50
2018-03-01T13:54:31.500Z,12.30
2018-03-01T13:57:00.772Z,12.40
2018-03-01T13:59:28.452Z,12.70
2018-03-01T14:02:00.723Z,12.10
2018-03-01T14:04:29.395Z,11.50
2018-03-01T14:07:02.781Z,11.20
2018-03-01T14:09:30.508Z,11.00
2018-03-01T14:11:59.348Z,11.00
2018-03-01T14:14:46.919Z,10.90
2018-03-01T14:17:19.963Z,11.00
2018-03-01T14:23:13.177Z,11.10
2018-03-01T14:28:54.765Z,11.20
2018-03-01T14:31:22.403Z,11.20
2018-03-01T14:33:50.106Z,11.30
2018-03-01T14:36:18.227Z,11.60
2018-03-01T14:38:45.950Z,11.50
2018-03-01T14:41:17.393Z,11.30
2018-03-01T14:43:47.890Z,11.10
2018-03-01T14:46:16.166Z,11.20
2018-03-01T14:48:44.752Z,11.30
2018-03-01T14:51:15.778Z,11.30
2018-03-01T14:53:43.415Z,11.50
2018-03-01T14:56:14.397Z,11.40
2018-03-01T14:58:45.326Z,11.10
2018-03-01T15:03:54.256Z,10.20
2018-03-01T15:06:25.662Z,9.50
2018-03-01T15:08:55.927Z,8.70
2018-03-01T15:11:29.137Z,8.10
2018-03-01T15:14:03.323Z,7.60
2018-03-01T15:16:32.596Z,7.20
2018-03-01T15:19:03.528Z,6.90
2018-03-01T15:21:32.131Z,6.50
2018-03-01T15:23:59.875Z,6.50
2018-03-01T15:26:27.657Z,6.60
2018-03-01T15:29:03.510Z,7.10
2018-03-01T15:31:34.443Z,7.90
2018-03-01T15:34:08.222Z,8.50
2018-03-01T15:36:49.397Z,8.50
2018-03-01T15:39:21.980Z,7.90
2018-03-01T15:42:05.611Z,6.90
2018-03-01T15:44:34.869Z,5.90
2018-03-01T15:47:07.363Z,5.10
2018-03-01T15:49:36.561Z,4.50
2018-03-01T15:52:09.042Z,4.00
2018-03-01T15:54:36.744Z,3.70
2018-03-01T15:57:05.274Z,3.40
2018-03-01T15:59:40.668Z,3.10
2018-03-01T16:02:10.212Z,3.10
2018-03-01T16:04:39.405Z,3.00
2018-03-01T16:07:08.865Z,2.90
2018-03-01T16:12:28.031Z,2.60
2018-03-01T16:14:56.968Z,2.50
2018-03-01T16:20:01.731Z,2.40
2018-03-01T16:22:34.528Z,2.30
2018-03-01T16:25:02.316Z,2.20
2018-03-01T16:27:39.338Z,2.20
2018-03-01T16:30:16.111Z,2.10
2018-03-01T16:32:52.421Z,2.10
2018-03-01T16:35:21.490Z,2.00
2018-03-01T16:37:49.117Z,2.00
2018-03-01T16:40:16.802Z,1.90
2018-03-01T16:42:46.583Z,1.90
2018-03-01T16:45:15.603Z,1.80
2018-03-01T16:47:44.500Z,1.80
2018-03-01T16:50:18.751Z,1.70
2018-03-01T16:52:47.957Z,1.60
2018-03-01T16:55:19.386Z,1.60
2018-03-01T16:57:48.160Z,1.60
2018-03-01T17:00:19.322Z,1.60
2018-03-01T17:02:53.870Z,1.50
2018-03-01T17:05:25.440Z,1.50
2018-03-01T17:07:58.417Z,1.40
2018-03-01T17:10:30.259Z,1.40
2018-03-01T17:13:02.168Z,1.40
2018-03-01T17:15:31.785Z,1.40
2018-03-01T17:18:21.177Z,1.40
2018-03-01T17:20:49.538Z,1.30
2018-03-01T17:23:17.481Z,1.30
2018-03-01T17:25:51.480Z,1.30
2018-03-01T17:28:19.468Z,1.20
2018-03-01T17:30:47.093Z,1.20
2018-03-01T17:33:14.670Z,1.20
2018-03-01T17:35:42.323Z,1.20
2018-03-01T17:38:09.879Z,1.20
2018-03-01T17:40:37.484Z,1.10
2018-03-01T17:43:05.065Z,1.10
2018-03-01T17:45:32.669Z,1.10
2018-03-01T17:48:00.225Z,1.10
2018-03-01T17:50:27.813Z,1.10
2018-03-01T17:52:55.768Z,1.10
2018-03-01T17:55:23.794Z,1.00
2018-03-01T17:57:51.404Z,1.00
2018-03-01T18:00:19.024Z,1.00
2018-03-01T18:02:48.116Z,1.00
2018-03-01T18:05:15.697Z,0.90
2018-03-01T18:07:43.329Z,1.00
2018-03-01T18:10:10.963Z,1.00
2018-03-01T18:12:38.687Z,0.90
2018-03-01T18:15:06.373Z,0.90
2018-03-01T18:17:33.955Z,0.80
2018-03-01T18:20:01.536Z,0.80
2018-03-01T18:22:29.193Z,0.80
2018-03-01T18:24:56.789Z,0.80
2018-03-01T18:27:24.393Z,0.90
2018-03-01T18:29:51.974Z,0.80
2018-03-01T18:32:19.550Z,0.80
2018-03-01T18:34:47.163Z,0.80
2018-03-01T18:37:14.768Z,0.70
2018-03-01T18:39:42.442Z,0.60
2018-03-01T18:42:09.992Z,0.60
2018-03-01T18:44:37.597Z,0.50
2018-03-01T18:47:05.917Z,0.50
2018-03-01T18:49:33.538Z,0.50
2018-03-01T18:52:01.542Z,0.40
2018-03-01T18:54:29.146Z,0.40
2018-03-01T18:56:56.738Z,0.40
2018-03-01T18:59:24.322Z,0.40
2018-03-01T19:01:51.919Z,0.50
2018-03-01T19:04:19.496Z,0.40
2018-03-01T19:06:47.505Z,0.40
2018-03-01T19:09:15.074Z,0.40
2018-03-01T19:11:42.889Z,0.30
2018-03-01T19:14:10.461Z,0.30
2018-03-01T19:16:38.091Z,0.30
2018-03-01T19:19:05.830Z,0.30
2018-03-01T19:21:33.385Z,0.30
2018-03-01T19:24:01.074Z,0.30
2018-03-01T19:26:28.645Z,0.30
2018-03-01T19:28:56.264Z,0.30
2018-03-01T19:31:24.714Z,0.30
2018-03-01T19:33:55.465Z,0.30
2018-03-01T19:36:23.180Z,0.30
2018-03-01T19:38:50.760Z,0.30
2018-03-01T19:41:18.768Z,0.20
2018-03-01T19:43:46.389Z,0.20
2018-03-01T19:46:16.039Z,0.20
2018-03-01T19:48:43.614Z,0.20
2018-03-01T19:51:11.334Z,0.20
2018-03-01T19:53:39.325Z,0.10
2018-03-01T19:56:06.970Z,0.10
2018-03-01T19:58:34.586Z,0.10
2018-03-01T20:01:02.279Z,0.10
2018-03-01T20:03:30.301Z,0.10
2018-03-01T20:05:58.700Z,0.10
2018-03-01T20:08:26.950Z,0.00
2018-03-01T20:10:54.572Z,0.00
2018-03-01T20:13:22.093Z,0.00
2018-03-01T20:15:50.501Z,0.00
2018-03-01T20:18:18.050Z,0.00
2018-03-01T20:20:46.038Z,0.00
2018-03-01T20:23:13.646Z,0.00
2018-03-01T20:25:41.237Z,0.00
2018-03-01T20:28:09.621Z,0.00
2018-03-01T20:30:37.885Z,0.00
2018-03-01T20:33:12.912Z,-0.10
2018-03-01T20:35:40.986Z,-0.10
2018-03-01T20:38:08.612Z,-0.10
2018-03-01T20:40:36.315Z,-0.20
2018-03-01T20:43:03.905Z,-0.20
2018-03-01T20:45:31.944Z,-0.30
2018-03-01T20:47:59.532Z,-0.30
2018-03-01T20:50:27.529Z,-0.30
2018-03-01T20:52:55.525Z,-0.30
2018-03-01T20:55:23.143Z,-0.30
2018-03-01T20:57:50.753Z,-0.30
2018-03-01T21:00:18.310Z,-0.30
2018-03-01T21:02:45.887Z,-0.40
2018-03-01T21:05:13.488Z,-0.50
2018-03-01T21:07:41.132Z,-0.50
2018-03-01T21:10:08.734Z,-0.60
2018-03-01T21:12:36.344Z,-0.60
2018-03-01T21:15:04.020Z,-0.60
2018-03-01T21:17:32.023Z,-0.70
2018-03-01T21:19:59.627Z,-0.70
2018-03-01T21:22:28.423Z,-0.80
2018-03-01T21:24:56.086Z,-0.80
2018-03-01T21:27:24.150Z,-1.00
2018-03-01T21:29:51.774Z,-1.00
2018-03-01T21:32:19.520Z,-1.10
2018-03-01T21:34:47.089Z,-1.20
2018-03-01T21:37:14.723Z,-1.20
2018-03-01T21:39:42.844Z,-1.30
2018-03-01T21:42:10.765Z,-1.40
2018-03-01T21:44:39.211Z,-1.50
2018-03-01T21:47:08.726Z,-1.60
2018-03-01T21:49:38.043Z,-1.60
2018-03-01T21:52:06.473Z,-1.60
2018-03-01T21:54:34.477Z,-1.70
2018-03-01T21:57:02.153Z,-1.70
2018-03-01T21:59:30.673Z,-1.90
2018-03-01T22:01:58.783Z,-1.90
2018-03-01T22:04:29.390Z,-1.90
2018-03-01T22:06:58.352Z,-1.90
2018-03-01T22:09:26.023Z,-2.00
2018-03-01T22:11:53.647Z,-2.00
2018-03-01T22:14:21.306Z,-2.00
2018-03-01T22:16:49.302Z,-2.00
2018-03-01T22:19:19.488Z,-2.00
2018-03-01T22:21:47.126Z,-2.10
2018-03-01T22:24:15.738Z,-2.20
2018-03-01T22:26:43.741Z,-2.30
2018-03-01T22:29:11.612Z,-2.30
2018-03-01T22:31:39.263Z,-2.40
2018-03-01T22:34:07.168Z,-2.50
2018-03-01T22:36:34.852Z,-2.50
2018-03-01T22:39:02.680Z,-2.50
2018-03-01T22:41:30.317Z,-2.60
2018-03-01T22:43:58.950Z,-2.60
2018-03-01T22:46:26.869Z,-2.60
2018-03-01T22:48:54.745Z,-2.60
2018-03-01T22:51:23.035Z,-2.60
2018-03-01T22:53:51.051Z,-2.60
2018-03-01T22:56:19.058Z,-2.60
2018-03-01T22:58:46.642Z,-2.60
2018-03-01T23:01:14.243Z,-2.60
2018-03-01T23:03:41.818Z,-2.60
2018-03-01T23:06:09.810Z,-2.60
2018-03-01T23:08:37.389Z,-2.60
2018-03-01T23:11:04.981Z,-2.60
2018-03-01T23:13:32.567Z,-2.70
2018-03-01T23:16:00.173Z,-2.70
2018-03-01T23:18:27.737Z,-2.70
2018-03-01T23:20:55.366Z,-2.70
2018-03-01T23:23:23.333Z,-2.70
2018-03-01T23:25:51.345Z,-2.60
2018-03-01T23:28:18.990Z,-2.70
2018-03-01T23:30:46.572Z,-2.60
2018-03-01T23:33:14.149Z,-2.60
2018-03-01T23:35:41.757Z,-2.70
2018-03-01T23:38:09.346Z,-2.70
2018-03-01T23:40:36.987Z,-2.70
2018-03-01T23:43:04.647Z,-2.70
2018-03-01T23:45:32.282Z,-2.80
2018-03-01T23:48:00.242Z,-2.90
2018-03-01T23:50:28.254Z,-3.00
2018-03-01T23:52:55.916Z,-3.00
2018-03-01T23:55:23.582Z,-3.00
2018-03-01T23:57:51.212Z,-3.00
